createdAt,value
2017-07-03T00:02:00.314Z,94737.03
2017-07-03T00:04:30.894Z,94741.80
2017-07-03T00:07:04.493Z,94770.67
2017-07-03T00:12:10.181Z,94916.27
2017-07-03T00:14:40.106Z,94925.55
2017-07-03T00:17:12.920Z,94867.08
2017-07-03T00:22:31.264Z,94765.91
2017-07-03T00:25:12.228Z,94818.78
2017-07-03T00:27:43.441Z,94847.27
2017-07-03T00:30:22.377Z,94888.73
2017-07-03T00:32:56.438Z,94860.13
2017-07-03T00:35:27.077Z,94810.22
2017-07-03T00:37:56.818Z,94771.13
2017-07-03T00:40:27.731Z,94790.84
2017-07-03T00:42:57.965Z,94829.25
2017-07-03T00:45:27.732Z,94863.37
2017-07-03T00:47:56.848Z,94854.30
2017-07-03T00:50:25.610Z,94821.39
2017-07-03T00:52:54.733Z,94799.47
2017-07-03T00:55:31.985Z,94789.88
2017-07-03T00:58:05.646Z,94769.27
2017-07-03T01:00:47.390Z,94773.49
2017-07-03T01:03:15.162Z,94770.64
2017-07-03T01:05:42.761Z,94758.36
2017-07-03T01:08:10.310Z,94742.45
2017-07-03T01:10:37.906Z,94752.37
2017-07-03T01:13:05.487Z,94763.33
2017-07-03T01:15:33.218Z,94814.62
2017-07-03T01:18:00.819Z,94919.95
2017-07-03T01:20:40.045Z,94965.44
2017-07-03T01:25:52.446Z,94778.70
2017-07-03T01:28:28.565Z,94787.02
2017-07-03T01:30:59.520Z,94802.87
2017-07-03T01:33:31.377Z,94794.23
2017-07-03T01:36:00.283Z,94793.48
2017-07-03T01:38:34.585Z,94779.21
2017-07-03T01:41:03.526Z,94773.50
2017-07-03T01:43:37.423Z,94771.73
2017-07-03T01:46:10.873Z,94778.79
2017-07-03T01:48:41.618Z,94774.89
2017-07-03T01:51:21.172Z,94779.76
2017-07-03T01:53:51.186Z,94792.62
2017-07-03T01:56:21.872Z,94798.69
2017-07-03T01:58:59.349Z,94776.91
2017-07-03T02:01:37.154Z,94725.67
2017-07-03T02:04:10.118Z,94710.07
2017-07-03T02:06:39.165Z,94731.06
2017-07-03T02:09:11.913Z,94756.15
2017-07-03T02:11:40.810Z,94840.19
2017-07-03T02:14:15.589Z,94916.91
2017-07-03T02:16:45.430Z,94940.23
2017-07-03T02:19:17.116Z,94867.63
2017-07-03T02:21:45.966Z,94738.48
2017-07-03T02:24:16.651Z,94701.16
2017-07-03T02:26:48.654Z,94717.25
2017-07-03T02:29:23.932Z,94699.91
2017-07-03T02:31:53.064Z,94674.55
2017-07-03T02:34:25.085Z,94676.19
2017-07-03T02:36:59.775Z,94711.21
2017-07-03T02:39:31.179Z,94835.06
2017-07-03T02:42:01.982Z,94933.75
2017-07-03T02:44:42.989Z,94944.64
2017-07-03T02:47:15.577Z,94886.45
2017-07-03T02:49:46.605Z,94775.50
2017-07-03T02:52:22.153Z,94749.97
2017-07-03T02:54:56.048Z,94726.05
2017-07-03T03:00:07.905Z,94742.38
2017-07-03T03:02:37.481Z,94760.66
2017-07-03T03:05:05.156Z,94771.87
2017-07-03T03:07:32.807Z,94781.08
2017-07-03T03:10:00.576Z,94787.32
2017-07-03T03:12:28.141Z,94773.80
2017-07-03T03:14:55.726Z,94729.89
2017-07-03T03:17:23.470Z,94686.58
2017-07-03T03:19:51.216Z,94652.95
2017-07-03T03:22:18.812Z,94653.28
2017-07-03T03:24:56.187Z,94701.00
2017-07-03T03:27:28.531Z,94825.20
2017-07-03T03:30:02.951Z,94956.16
2017-07-03T03:32:33.925Z,94944.11
2017-07-03T03:35:10.590Z,94794.44
2017-07-03T03:37:42.297Z,94660.76
2017-07-03T03:40:24.300Z,94700.80
2017-07-03T03:43:04.404Z,94743.33
2017-07-03T03:45:34.338Z,94711.36
2017-07-03T03:48:14.336Z,94660.69
2017-07-03T03:50:43.804Z,94677.68
2017-07-03T03:53:17.450Z,94696.48
2017-07-03T03:55:45.808Z,94730.96
2017-07-03T03:58:16.476Z,94752.95
2017-07-03T04:03:24.000Z,94701.88
2017-07-03T04:05:51.710Z,94716.66
2017-07-03T04:08:19.274Z,94794.84
2017-07-03T04:10:46.787Z,94832.84
2017-07-03T04:13:14.378Z,94835.27
2017-07-03T04:15:41.898Z,94803.60
2017-07-03T04:18:09.435Z,94801.47
2017-07-03T04:20:36.994Z,94779.80
2017-07-03T04:23:04.553Z,94747.11
2017-07-03T04:25:32.164Z,94691.39
2017-07-03T04:27:59.771Z,94706.80
2017-07-03T04:30:27.338Z,94714.26
2017-07-03T04:32:55.913Z,94738.44
2017-07-03T04:35:23.481Z,94740.40
2017-07-03T04:37:51.102Z,94738.75
2017-07-03T04:40:18.929Z,94741.27
2017-07-03T04:42:46.558Z,94735.11
2017-07-03T04:45:15.174Z,94734.14
2017-07-03T04:47:43.622Z,94736.54
2017-07-03T04:50:11.233Z,94745.46
2017-07-03T04:52:41.777Z,94763.61
2017-07-03T04:55:09.384Z,94782.47
2017-07-03T04:57:36.989Z,94789.44
2017-07-03T05:00:07.076Z,94785.52
2017-07-03T05:02:34.685Z,94770.69
2017-07-03T05:05:02.354Z,94756.34
2017-07-03T05:07:29.952Z,94740.41
2017-07-03T05:09:57.518Z,94721.27
2017-07-03T05:12:25.059Z,94712.36
2017-07-03T05:14:52.718Z,94716.09
2017-07-03T05:17:20.509Z,94732.55
2017-07-03T05:19:48.032Z,94760.80
2017-07-03T05:22:15.621Z,94764.16
2017-07-03T05:24:43.366Z,94790.94
2017-07-03T05:27:10.918Z,94810.30
2017-07-03T05:29:38.487Z,94815.00
2017-07-03T05:32:06.094Z,94785.92
2017-07-03T05:34:33.632Z,94791.34
2017-07-03T05:37:01.196Z,94807.16
2017-07-03T05:39:28.784Z,94836.59
2017-07-03T05:41:56.617Z,94822.25
2017-07-03T05:44:29.069Z,94791.31
2017-07-03T05:46:56.825Z,94748.79
2017-07-03T05:49:24.573Z,94751.20
2017-07-03T05:51:52.161Z,94759.20
2017-07-03T05:54:19.901Z,94756.38
2017-07-03T05:56:47.476Z,94767.41
2017-07-03T05:59:15.074Z,94778.28
2017-07-03T06:01:42.693Z,94788.13
2017-07-03T06:04:10.447Z,94786.20
2017-07-03T06:06:38.204Z,94790.04
2017-07-03T06:09:05.817Z,94809.97
2017-07-03T06:11:33.362Z,94825.07
2017-07-03T06:14:00.988Z,94825.45
2017-07-03T06:16:28.624Z,94829.39
2017-07-03T06:18:56.206Z,94831.59
2017-07-03T06:21:23.804Z,94834.43
2017-07-03T06:23:51.420Z,94836.30
2017-07-03T06:26:18.985Z,94839.30
2017-07-03T06:28:46.518Z,94844.77
2017-07-03T06:31:14.379Z,94841.26
2017-07-03T06:33:42.310Z,94841.67
2017-07-03T06:36:10.084Z,94836.59
2017-07-03T06:38:37.745Z,94844.53
2017-07-03T06:41:05.510Z,94843.13
2017-07-03T06:43:33.616Z,94864.13
2017-07-03T06:46:01.240Z,94869.36
2017-07-03T06:48:29.002Z,94870.45
2017-07-03T06:50:56.573Z,94870.22
2017-07-03T06:53:24.162Z,94869.04
2017-07-03T06:55:51.914Z,94868.79
2017-07-03T06:58:19.542Z,94863.08
2017-07-03T07:00:47.110Z,94855.30
2017-07-03T07:03:15.316Z,94837.78
2017-07-03T07:05:43.174Z,94822.36
2017-07-03T07:08:10.817Z,94807.72
2017-07-03T07:10:38.580Z,94817.32
2017-07-03T07:13:06.206Z,94818.81
2017-07-03T07:15:33.826Z,94827.42
2017-07-03T07:18:01.705Z,94831.34
2017-07-03T07:20:29.245Z,94835.09
2017-07-03T07:22:56.877Z,94842.98
2017-07-03T07:25:24.484Z,94851.03
2017-07-03T07:27:52.067Z,94860.25
2017-07-03T07:30:19.728Z,94859.27
2017-07-03T07:32:47.583Z,94867.92
2017-07-03T07:35:15.374Z,94869.80
2017-07-03T07:37:43.021Z,94869.84
2017-07-03T07:40:10.599Z,94871.17
2017-07-03T07:42:38.160Z,94870.09
2017-07-03T07:45:06.128Z,94871.11
2017-07-03T07:47:33.999Z,94868.91
2017-07-03T07:50:01.621Z,94875.53
2017-07-03T07:52:29.412Z,94875.80
2017-07-03T07:54:57.019Z,94882.11
2017-07-03T07:57:24.896Z,94886.08
2017-07-03T07:59:52.522Z,94888.88
2017-07-03T08:02:20.139Z,94887.36
2017-07-03T08:04:47.719Z,94881.23
2017-07-03T08:07:15.526Z,94893.95
2017-07-03T08:09:43.140Z,94886.23
2017-07-03T08:12:10.764Z,94890.86
2017-07-03T08:14:38.370Z,94894.35
2017-07-03T08:17:06.100Z,94897.23
2017-07-03T08:19:33.984Z,94898.48
2017-07-03T08:22:01.597Z,94896.81
2017-07-03T08:24:29.232Z,94899.14
2017-07-03T08:26:56.840Z,94894.45
2017-07-03T08:29:24.427Z,94897.86
2017-07-03T08:31:52.255Z,94907.30
2017-07-03T08:34:19.925Z,94904.31
2017-07-03T08:36:47.571Z,94915.05
2017-07-03T08:39:15.250Z,94916.81
2017-07-03T08:41:43.356Z,94912.27
2017-07-03T08:44:11.172Z,94912.50
2017-07-03T08:46:38.892Z,94923.81
2017-07-03T08:49:06.716Z,94915.16
2017-07-03T08:51:34.586Z,94909.58
2017-07-03T08:54:02.220Z,94910.48
2017-07-03T08:56:30.067Z,94918.28
2017-07-03T08:58:57.652Z,94913.18
2017-07-03T09:01:26.525Z,94913.11
2017-07-03T09:03:54.136Z,94915.56
2017-07-03T09:06:22.066Z,94917.62
2017-07-03T09:08:49.687Z,94914.17
2017-07-03T09:11:17.276Z,94920.48
2017-07-03T09:13:45.073Z,94918.31
2017-07-03T09:16:13.030Z,94930.57
2017-07-03T09:18:40.661Z,94930.80
2017-07-03T09:21:08.292Z,94931.33
2017-07-03T09:23:35.912Z,94933.95
2017-07-03T09:26:03.479Z,94930.25
2017-07-03T09:28:31.043Z,94930.19
2017-07-03T09:30:58.673Z,94930.63
2017-07-03T09:33:26.261Z,94934.92
2017-07-03T09:35:53.913Z,94931.17
2017-07-03T09:38:22.017Z,94923.48
2017-07-03T09:40:49.595Z,94932.02
2017-07-03T09:43:17.388Z,94927.63
2017-07-03T09:45:45.820Z,94937.64
2017-07-03T09:48:13.645Z,94943.33
2017-07-03T09:50:41.212Z,94944.87
2017-07-03T09:53:08.881Z,94940.89
2017-07-03T09:55:36.504Z,94948.93
2017-07-03T09:58:04.306Z,94946.50
2017-07-03T10:00:32.308Z,94950.06
2017-07-03T10:02:59.931Z,94952.80
2017-07-03T10:05:27.556Z,94964.05
2017-07-03T10:07:55.178Z,94965.22
2017-07-03T10:10:22.770Z,94964.59
2017-07-03T10:12:50.388Z,94969.11
2017-07-03T10:15:18.007Z,94974.23
2017-07-03T10:17:45.661Z,94977.73
2017-07-03T10:20:13.227Z,94972.69
2017-07-03T10:22:40.894Z,94983.62
2017-07-03T10:25:08.495Z,94985.89
2017-07-03T10:27:36.137Z,94983.97
2017-07-03T10:30:06.008Z,94989.48
2017-07-03T10:32:33.862Z,94993.42
2017-07-03T10:35:01.411Z,94996.01
2017-07-03T10:37:29.027Z,95000.20
2017-07-03T10:39:56.793Z,94996.73
2017-07-03T10:42:24.320Z,94999.05
2017-07-03T10:44:51.916Z,94999.33
2017-07-03T10:47:20.199Z,95012.45
2017-07-03T10:49:47.740Z,95007.58
2017-07-03T10:52:15.318Z,95007.33
2017-07-03T10:54:43.223Z,95009.06
2017-07-03T10:57:10.793Z,95009.98
2017-07-03T10:59:38.379Z,95002.37
2017-07-03T11:02:05.948Z,94997.31
2017-07-03T11:04:33.560Z,94990.83
2017-07-03T11:07:01.300Z,94993.89
2017-07-03T11:09:28.888Z,94988.77
2017-07-03T11:11:56.433Z,94987.01
2017-07-03T11:14:23.986Z,94980.66
2017-07-03T11:16:51.609Z,94986.68
2017-07-03T11:19:19.206Z,94978.64
2017-07-03T11:21:47.130Z,94977.43
2017-07-03T11:24:14.764Z,94976.77
2017-07-03T11:26:42.318Z,94972.25
2017-07-03T11:29:09.865Z,94969.59
2017-07-03T11:31:37.449Z,94958.45
2017-07-03T11:34:05.002Z,94956.37
2017-07-03T11:36:32.921Z,94954.57
2017-07-03T11:39:00.519Z,94966.34
2017-07-03T11:41:28.062Z,94972.11
2017-07-03T11:43:55.612Z,94971.92
2017-07-03T11:46:23.202Z,94979.63
2017-07-03T11:48:50.833Z,94989.34
2017-07-03T11:51:18.692Z,94982.53
2017-07-03T11:53:46.264Z,94986.95
2017-07-03T11:56:14.075Z,94988.58
2017-07-03T11:58:41.612Z,94982.09
2017-07-03T12:01:09.271Z,94978.44
2017-07-03T12:03:36.824Z,94973.44
2017-07-03T12:06:04.430Z,94967.42
2017-07-03T12:08:32.016Z,94970.06
2017-07-03T12:10:59.600Z,94957.98
2017-07-03T12:13:27.143Z,94959.45
2017-07-03T12:15:54.821Z,94964.88
2017-07-03T12:18:22.412Z,94971.97
2017-07-03T12:20:49.988Z,94980.00
2017-07-03T12:23:17.587Z,94969.81
2017-07-03T12:25:45.106Z,94979.62
2017-07-03T12:28:12.644Z,94987.89
2017-07-03T12:30:40.236Z,94985.02
2017-07-03T12:33:07.795Z,94991.84
2017-07-03T12:35:35.324Z,94992.91
2017-07-03T12:38:02.903Z,94995.88
2017-07-03T12:40:30.449Z,94988.48
2017-07-03T12:42:57.998Z,94988.87
2017-07-03T12:45:25.648Z,94976.25
2017-07-03T12:47:53.437Z,94986.08
2017-07-03T12:50:21.041Z,94988.49
2017-07-03T12:52:48.662Z,94997.80
2017-07-03T12:55:17.187Z,94993.86
2017-07-03T13:00:11.783Z,95003.40
2017-07-03T13:02:39.405Z,95007.94
2017-07-03T13:05:06.963Z,95013.91
2017-07-03T13:07:34.580Z,95024.56
2017-07-03T13:10:02.207Z,95017.77
2017-07-03T13:12:29.791Z,95023.98
2017-07-03T13:14:57.433Z,95024.14
2017-07-03T13:17:25.000Z,95016.24
2017-07-03T13:19:52.801Z,95028.22
2017-07-03T13:22:20.415Z,95022.70
2017-07-03T13:24:48.010Z,95034.02
2017-07-03T13:27:15.787Z,95031.03
2017-07-03T13:29:43.399Z,95028.74
2017-07-03T13:32:11.042Z,95026.20
2017-07-03T13:34:38.569Z,95023.84
2017-07-03T13:37:06.144Z,95022.89
2017-07-03T13:39:33.888Z,95013.17
2017-07-03T13:42:01.470Z,95023.91
2017-07-03T13:44:29.026Z,95027.91
2017-07-03T13:46:56.613Z,95023.31
2017-07-03T13:49:24.411Z,95017.28
2017-07-03T13:51:51.924Z,95020.94
2017-07-03T13:54:19.517Z,95029.23
2017-07-03T13:56:47.420Z,95036.30
2017-07-03T13:59:15.055Z,95033.84
2017-07-03T14:01:42.691Z,95032.64
2017-07-03T14:04:10.246Z,95033.27
2017-07-03T14:06:37.878Z,95033.54
2017-07-03T14:09:05.504Z,95038.55
2017-07-03T14:11:33.105Z,95046.06
2017-07-03T14:14:00.719Z,95050.03
2017-07-03T14:16:28.393Z,95057.66
2017-07-03T14:18:56.877Z,95057.52
2017-07-03T14:21:24.692Z,95064.16
2017-07-03T14:23:52.323Z,95060.14
2017-07-03T14:26:19.878Z,95061.52
2017-07-03T14:28:47.498Z,95066.52
2017-07-03T14:31:15.094Z,95072.47
2017-07-03T14:33:42.733Z,95073.06
2017-07-03T14:36:10.347Z,95077.89
2017-07-03T14:38:37.935Z,95078.30
2017-07-03T14:41:05.547Z,95087.16
2017-07-03T14:43:33.370Z,95093.16
2017-07-03T14:46:00.970Z,95092.31
2017-07-03T14:48:28.542Z,95088.89
2017-07-03T14:50:56.141Z,95093.81
2017-07-03T14:53:23.755Z,95091.45
2017-07-03T14:55:51.360Z,95093.69
2017-07-03T14:58:19.012Z,95099.27
2017-07-03T15:00:46.643Z,95098.53
2017-07-03T15:03:14.700Z,95094.06
2017-07-03T15:05:42.772Z,95099.19
2017-07-03T15:08:10.349Z,95105.41
2017-07-03T15:10:38.000Z,95111.55
2017-07-03T15:13:05.896Z,95108.86
2017-07-03T15:15:33.558Z,95110.42
2017-07-03T15:18:01.307Z,95122.45
2017-07-03T15:20:28.882Z,95122.16
2017-07-03T15:22:56.475Z,95127.55
2017-07-03T15:25:24.008Z,95121.86
2017-07-03T15:27:51.753Z,95129.70
2017-07-03T15:30:19.338Z,95135.58
2017-07-03T15:32:47.066Z,95139.84
2017-07-03T15:35:14.848Z,95140.08
2017-07-03T15:37:42.497Z,95155.16
2017-07-03T15:40:10.085Z,95161.35
2017-07-03T15:42:37.917Z,95164.67
2017-07-03T15:45:05.527Z,95162.66
2017-07-03T15:47:33.135Z,95169.41
2017-07-03T15:50:00.713Z,95172.75
2017-07-03T15:52:28.355Z,95172.59
2017-07-03T15:54:56.069Z,95174.52
2017-07-03T15:57:25.819Z,95178.36
2017-07-03T15:59:53.443Z,95178.25
2017-07-03T16:02:21.100Z,95184.91
2017-07-03T16:04:49.493Z,95191.91
2017-07-03T16:07:17.184Z,95186.99
2017-07-03T16:09:44.847Z,95193.44
2017-07-03T16:12:12.611Z,95196.80
2017-07-03T16:14:40.268Z,95202.30
2017-07-03T16:17:08.039Z,95196.55
2017-07-03T16:19:35.931Z,95206.28
2017-07-03T16:22:03.503Z,95209.14
2017-07-03T16:24:31.972Z,95209.81
2017-07-03T16:26:59.599Z,95212.32
2017-07-03T16:29:27.552Z,95218.36
2017-07-03T16:31:55.181Z,95208.12
2017-07-03T16:34:22.750Z,95213.23
2017-07-03T16:36:50.784Z,95214.56
2017-07-03T16:39:18.422Z,95213.92
2017-07-03T16:41:48.353Z,95218.95
2017-07-03T16:44:16.549Z,95219.56
2017-07-03T16:46:44.267Z,95231.88
2017-07-03T16:49:11.859Z,95228.81
2017-07-03T16:51:40.871Z,95229.56
2017-07-03T16:54:10.390Z,95230.92
2017-07-03T16:56:40.408Z,95242.98
2017-07-03T16:59:09.971Z,95234.02
2017-07-03T17:01:41.665Z,95238.90
2017-07-03T17:04:11.220Z,95240.67
2017-07-03T17:06:40.397Z,95241.66
2017-07-03T17:09:09.869Z,95243.09
2017-07-03T17:11:37.415Z,95243.08
2017-07-03T17:14:05.231Z,95249.45
2017-07-03T17:16:32.817Z,95248.49
2017-07-03T17:19:00.400Z,95247.12
2017-07-03T17:21:28.639Z,95248.48
2017-07-03T17:23:57.509Z,95251.99
2017-07-03T17:26:26.219Z,95256.09
2017-07-03T17:28:56.493Z,95260.98
2017-07-03T17:31:24.780Z,95263.34
2017-07-03T17:33:53.396Z,95272.34
2017-07-03T17:36:22.597Z,95263.73
2017-07-03T17:38:51.019Z,95263.73
2017-07-03T17:41:19.076Z,95262.19
2017-07-03T17:43:47.774Z,95268.02
2017-07-03T17:46:17.259Z,95273.33
2017-07-03T17:48:45.997Z,95269.58
2017-07-03T17:51:13.732Z,95271.55
2017-07-03T17:53:41.360Z,95275.63
2017-07-03T17:56:09.497Z,95269.80
2017-07-03T17:58:39.809Z,95281.52
2017-07-03T18:01:07.549Z,95282.11
2017-07-03T18:03:35.071Z,95286.81
2017-07-03T18:06:02.671Z,95282.13
2017-07-03T18:08:30.267Z,95286.44
2017-07-03T18:10:57.809Z,95292.69
2017-07-03T18:13:25.350Z,95292.28
2017-07-03T18:15:52.992Z,95299.53
2017-07-03T18:18:20.516Z,95301.45
2017-07-03T18:20:48.096Z,95315.35
2017-07-03T18:23:15.715Z,95309.67
2017-07-03T18:25:43.235Z,95313.40
2017-07-03T18:28:10.806Z,95315.13
2017-07-03T18:30:38.469Z,95323.63
2017-07-03T18:33:06.031Z,95316.75
2017-07-03T18:35:33.777Z,95317.34
2017-07-03T18:38:01.363Z,95323.94
2017-07-03T18:40:28.908Z,95335.67
2017-07-03T18:42:56.423Z,95335.28
2017-07-03T18:45:24.506Z,95336.49
2017-07-03T18:47:52.094Z,95334.55
2017-07-03T18:50:19.658Z,95330.03
2017-07-03T18:52:47.306Z,95338.04
2017-07-03T18:55:14.850Z,95332.95
2017-07-03T18:57:43.210Z,95337.69
2017-07-03T19:00:10.885Z,95348.60
2017-07-03T19:02:38.626Z,95344.50
2017-07-03T19:05:06.210Z,95346.69
2017-07-03T19:07:33.830Z,95349.04
2017-07-03T19:10:01.344Z,95351.94
2017-07-03T19:12:28.890Z,95360.36
2017-07-03T19:14:56.506Z,95361.91
2017-07-03T19:17:24.151Z,95360.52
2017-07-03T19:19:51.704Z,95362.66
2017-07-03T19:22:19.297Z,95362.71
2017-07-03T19:24:47.172Z,95365.45
2017-07-03T19:27:14.734Z,95371.09
2017-07-03T19:29:42.390Z,95371.84
2017-07-03T19:32:10.727Z,95370.11
2017-07-03T19:34:38.301Z,95377.50
2017-07-03T19:37:06.947Z,95383.84
2017-07-03T19:39:34.563Z,95376.22
2017-07-03T19:42:02.206Z,95375.42
2017-07-03T19:44:29.964Z,95374.91
2017-07-03T19:46:57.593Z,95380.39
2017-07-03T19:49:25.144Z,95392.71
2017-07-03T19:51:52.770Z,95392.20
2017-07-03T19:54:20.351Z,95398.49
2017-07-03T19:56:47.905Z,95393.94
2017-07-03T19:59:15.734Z,95385.39
2017-07-03T20:01:43.340Z,95395.42
2017-07-03T20:04:10.868Z,95394.20
2017-07-03T20:06:38.483Z,95397.06
2017-07-03T20:09:06.996Z,95400.95
2017-07-03T20:11:34.599Z,95403.44
2017-07-03T20:14:02.368Z,95400.10
2017-07-03T20:16:29.992Z,95401.31
2017-07-03T20:18:57.729Z,95402.27
2017-07-03T20:21:25.366Z,95404.59
2017-07-03T20:23:52.975Z,95405.45
2017-07-03T20:26:20.566Z,95407.44
2017-07-03T20:28:48.131Z,95417.80
2017-07-03T20:31:15.973Z,95411.58
2017-07-03T20:33:43.539Z,95411.77
2017-07-03T20:36:11.085Z,95404.76
2017-07-03T20:38:38.661Z,95406.70
2017-07-03T20:41:06.211Z,95412.18
2017-07-03T20:43:33.795Z,95407.70
2017-07-03T20:46:01.377Z,95407.91
2017-07-03T20:48:29.113Z,95413.17
2017-07-03T20:50:56.636Z,95411.22
2017-07-03T20:53:24.221Z,95410.63
2017-07-03T20:55:51.769Z,95410.81
2017-07-03T20:58:19.344Z,95425.47
2017-07-03T21:00:46.985Z,95426.44
2017-07-03T21:03:14.598Z,95424.86
2017-07-03T21:05:42.158Z,95433.67
2017-07-03T21:08:09.767Z,95429.79
2017-07-03T21:10:37.312Z,95424.89
2017-07-03T21:13:04.866Z,95423.92
2017-07-03T21:15:32.449Z,95428.25
2017-07-03T21:18:00.036Z,95436.66
2017-07-03T21:20:27.588Z,95434.36
2017-07-03T21:22:56.472Z,95436.16
2017-07-03T21:27:52.721Z,95433.95
2017-07-03T21:30:21.106Z,95435.92
2017-07-03T21:32:58.036Z,95439.06
2017-07-03T21:35:27.502Z,95434.73
2017-07-03T21:37:55.324Z,95435.53
2017-07-03T21:40:23.141Z,95439.03
2017-07-03T21:42:50.771Z,95433.97
2017-07-03T21:45:18.383Z,95418.89
2017-07-03T21:47:45.951Z,95425.75
2017-07-03T21:50:13.549Z,95427.06
2017-07-03T21:52:41.132Z,95431.21
2017-07-03T21:55:08.692Z,95436.88
2017-07-03T21:57:36.268Z,95427.30
2017-07-03T22:00:08.603Z,95428.69
2017-07-03T22:02:36.354Z,95434.14
2017-07-03T22:05:04.101Z,95435.52
2017-07-03T22:07:31.869Z,95438.62
2017-07-03T22:10:00.373Z,95428.45
2017-07-03T22:12:28.439Z,95430.59
2017-07-03T22:14:56.096Z,95434.50
2017-07-03T22:17:23.652Z,95434.91
2017-07-03T22:20:15.909Z,95431.73
2017-07-03T22:22:43.562Z,95440.39
2017-07-03T22:25:11.166Z,95444.48
2017-07-03T22:27:38.760Z,95449.59
2017-07-03T22:30:08.217Z,95445.87
2017-07-03T22:32:35.786Z,95445.30
2017-07-03T22:35:03.531Z,95442.18
2017-07-03T22:37:31.126Z,95438.24
2017-07-03T22:39:58.867Z,95440.57
2017-07-03T22:42:26.408Z,95433.33
2017-07-03T22:44:53.980Z,95434.14
2017-07-03T22:47:21.834Z,95437.64
2017-07-03T22:49:49.380Z,95436.23
2017-07-03T22:52:17.030Z,95433.94
2017-07-03T22:54:45.016Z,95431.78
2017-07-03T22:57:12.656Z,95434.70
2017-07-03T22:59:40.278Z,95438.39
2017-07-03T23:02:07.873Z,95435.08
2017-07-03T23:04:35.593Z,95434.91
2017-07-03T23:07:03.337Z,95435.28
2017-07-03T23:09:30.968Z,95434.66
2017-07-03T23:11:58.500Z,95442.05
2017-07-03T23:14:26.073Z,95440.67
2017-07-03T23:16:53.676Z,95441.48
2017-07-03T23:19:21.232Z,95436.48
2017-07-03T23:21:48.801Z,95439.01
2017-07-03T23:24:16.432Z,95436.28
2017-07-03T23:26:44.065Z,95443.73
2017-07-03T23:29:12.144Z,95443.91
2017-07-03T23:31:39.705Z,95436.54
2017-07-03T23:34:07.254Z,95439.86
2017-07-03T23:36:34.790Z,95433.56
2017-07-03T23:39:02.400Z,95445.09
2017-07-03T23:41:29.974Z,95439.23
2017-07-03T23:43:57.539Z,95436.70
2017-07-03T23:46:25.137Z,95433.56
2017-07-03T23:48:52.662Z,95433.18
2017-07-03T23:51:20.235Z,95438.08
2017-07-03T23:53:47.833Z,95434.55
2017-07-03T23:56:15.384Z,95440.19
2017-07-03T23:58:43.225Z,95439.82
